Time;durP1;ratioP1;P1;durP2;ratioP2;P2;SDS_P1;SDS_P2;PMS_P1;PMS_P2;Temp;Humidity;BMP_temperature;BMP_pressure;BME280_temperature;BME280_humidity;BME280_pressure;Samples;Min_cycle;Max_cycle;Signal;HPM_P1;HPM_P2
2022/09/27 00:00:30;;;;;;;7.07;1.05;;;;;;;-143.48;85.56;77641.38;4964505;28;20113;-76
2022/09/27 00:02:55;;;;;;;2.97;0.70;;;;;;;-143.48;85.13;77655.25;4980412;28;20117;-76
2022/09/27 00:05:20;;;;;;;2.25;0.55;;;;;;;-143.48;85.06;77649.28;4998522;28;20026;-78
2022/09/27 00:07:46;;;;;;;5.38;0.95;;;;;;;-143.48;84.76;77659.22;4998073;28;20030;-78
2022/09/27 00:10:12;;;;;;;6.72;1.02;;;;;;;-143.48;84.29;77659.22;4980350;28;20513;-77
2022/09/27 00:12:38;;;;;;;2.97;0.40;;;;;;;-143.48;84.67;77651.28;4997571;28;20031;-77
2022/09/27 00:15:06;;;;;;;3.00;0.60;;;;;;;-143.48;84.62;77671.09;4997396;28;20409;-77
2022/09/27 00:17:31;;;;;;;6.82;0.70;;;;;;;-143.48;84.13;77665.16;4964169;28;20042;-78
2022/09/27 00:20:01;;;;;;;4.10;0.50;;;;;;;-143.48;84.54;77679.03;4979802;28;20503;-76
2022/09/27 00:22:27;;;;;;;4.35;0.60;;;;;;;-143.48;84.66;77690.94;4979708;28;20054;-77
2022/09/27 00:24:53;;;;;;;5.75;0.55;;;;;;;-143.48;85.07;77686.97;4979788;28;20022;-76
2022/09/27 00:27:19;;;;;;;2.20;0.47;;;;;;;-143.48;84.98;77706.78;4979459;28;20084;-76
2022/09/27 00:29:45;;;;;;;1.90;0.50;;;;;;;-143.48;85.31;77692.91;4979566;28;20030;-77
2022/09/27 00:32:12;;;;;;;3.75;0.50;;;;;;;-143.48;85.00;77710.75;4997183;28;20033;-77
2022/09/27 00:34:38;;;;;;;2.10;0.30;;;;;;;-143.48;84.80;77718.69;4979876;28;20117;-78
2022/09/27 00:37:03;;;;;;;6.03;0.43;;;;;;;-143.48;85.06;77710.75;4979313;28;20027;-76
2022/09/27 00:39:28;;;;;;;2.92;0.60;;;;;;;-143.48;84.68;77726.63;4979601;28;20033;-76
2022/09/27 00:41:54;;;;;;;3.20;0.50;;;;;;;-143.48;85.10;77732.56;4979721;28;20026;-76
2022/09/27 00:44:26;;;;;;;5.75;0.70;;;;;;;-143.48;85.36;77738.53;4997068;28;20057;-78
2022/09/27 00:47:03;;;;;;;4.53;0.50;;;;;;;-143.48;85.41;77728.59;4988009;28;20061;-76
2022/09/27 00:49:42;;;;;;;3.38;0.50;;;;;;;-143.48;85.61;77730.59;4996929;28;20034;-76
2022/09/27 00:52:12;;;;;;;3.22;0.68;;;;;;;-143.48;85.67;77728.59;4996873;28;20102;-76
2022/09/27 00:54:41;;;;;;;5.65;0.55;;;;;;;-143.48;85.03;77744.47;4996708;28;20045;-77
2022/09/27 00:57:07;;;;;;;3.85;0.82;;;;;;;-143.48;85.36;77758.34;4996539;28;20018;-76
2022/09/27 00:59:37;;;;;;;9.10;0.82;;;;;;;-143.48;86.20;77760.34;4979222;28;20022;-77
2022/09/27 01:02:05;;;;;;;3.50;0.68;;;;;;;-143.48;86.35;77760.34;4979265;28;20065;-76
2022/09/27 01:04:31;;;;;;;5.25;0.63;;;;;;;-143.48;86.50;77740.50;4979542;28;20094;-77
2022/09/27 01:06:57;;;;;;;6.28;0.50;;;;;;;-143.48;85.95;77738.53;4996356;28;20125;-77
2022/09/27 01:09:23;;;;;;;3.13;0.63;;;;;;;-143.48;85.49;77760.34;4996441;28;20026;-77
2022/09/27 01:11:53;;;;;;;5.25;0.60;;;;;;;-143.48;85.69;77758.34;4978036;28;20504;-78
2022/09/27 01:14:36;;;;;;;3.28;0.43;;;;;;;-143.48;86.13;77750.41;4996494;28;20035;-77
2022/09/27 01:17:08;;;;;;;4.20;0.60;;;;;;;-143.48;85.60;77758.34;4979209;28;20027;-78
2022/09/27 01:20:04;;;;;;;6.57;0.90;;;;;;;-143.48;86.00;77746.44;4979023;28;20034;-76
2022/09/27 01:23:03;;;;;;;1.92;0.60;;;;;;;-143.48;86.08;77750.41;4996863;28;20026;-77
2022/09/27 01:25:38;;;;;;;3.25;0.55;;;;;;;-143.48;85.89;77754.38;4996177;28;20026;-77
2022/09/27 01:28:09;;;;;;;3.38;0.73;;;;;;;-143.48;85.57;77762.31;4978570;28;20026;-78
2022/09/27 01:30:42;;;;;;;5.50;0.93;;;;;;;-143.48;86.01;77764.31;4996340;28;20037;-77
2022/09/27 01:33:22;;;;;;;6.13;1.00;;;;;;;-143.48;85.83;77754.38;4979002;28;20470;-77
2022/09/27 01:35:48;;;;;;;3.83;0.63;;;;;;;-143.48;85.57;77738.53;4978795;28;20022;-77
2022/09/27 01:38:41;;;;;;;4.93;1.08;;;;;;;-143.48;84.93;77732.56;4978891;28;20049;-77
2022/09/27 01:41:09;;;;;;;7.18;0.85;;;;;;;-143.48;85.20;77720.69;4978929;28;20045;-76
2022/09/27 01:43:53;;;;;;;8.80;1.00;;;;;;;-143.48;85.03;77728.59;4978427;28;20034;-77
2022/09/27 01:46:42;;;;;;;4.13;0.73;;;;;;;-143.48;85.14;77738.53;4995792;28;20022;-76
2022/09/27 01:49:25;;;;;;;8.07;0.90;;;;;;;-143.48;84.79;77740.50;4978270;28;20176;-77
2022/09/27 01:51:56;;;;;;;8.73;1.88;;;;;;;-143.48;84.89;77750.41;4978282;28;20023;-77
2022/09/27 01:54:29;;;;;;;7.63;1.33;;;;;;;-143.48;85.18;77764.31;4978370;28;20033;-77
2022/09/27 01:56:57;;;;;;;3.90;0.70;;;;;;;-143.48;85.09;77774.22;4978013;28;20018;-77
2022/09/27 01:59:32;;;;;;;3.80;0.88;;;;;;;-143.48;85.65;77770.25;4995392;28;20164;-76
2022/09/27 02:02:03;;;;;;;3.65;0.80;;;;;;;-143.48;85.34;77762.31;4995939;28;20026;-75
2022/09/27 02:04:32;;;;;;;4.35;1.05;;;;;;;-143.48;85.49;77754.38;4978102;28;20026;-77
2022/09/27 02:07:28;;;;;;;5.25;1.05;;;;;;;-143.48;85.59;77754.38;4995377;28;20105;-76
2022/09/27 02:10:05;;;;;;;10.23;1.25;;;;;;;-143.48;85.83;77744.47;4977037;28;20042;-77
2022/09/27 02:12:38;;;;;;;5.45;1.20;;;;;;;-143.48;85.54;77756.38;4995458;28;20030;-76
2022/09/27 02:15:05;;;;;;;;;;;;;;;-143.48;85.25;77740.50;4978144;28;20104;-77
2022/09/27 02:17:40;;;;;;;3.35;0.95;;;;;;;-143.48;85.01;77760.34;4977643;28;19909;-77
2022/09/27 02:20:18;;;;;;;6.85;1.35;;;;;;;-143.48;84.63;77770.25;4977699;28;20034;-77
2022/09/27 02:22:49;;;;;;;8.05;1.40;;;;;;;-143.48;84.60;77766.28;4994780;28;20366;-76
2022/09/27 02:25:29;;;;;;;6.80;1.70;;;;;;;-143.48;84.65;77788.09;4977634;28;20034;-77
2022/09/27 02:28:10;;;;;;;8.77;1.50;;;;;;;-143.48;85.05;77788.09;4977244;28;20027;-77
2022/09/27 02:30:37;;;;;;;5.10;0.90;;;;;;;-143.48;84.92;77776.19;4977494;28;20046;-76
2022/09/27 02:33:02;;;;;;;5.55;0.98;;;;;;;-143.48;84.75;77778.19;4977428;28;20026;-77
2022/09/27 02:35:33;;;;;;;7.35;1.20;;;;;;;-143.48;84.45;77762.31;4994805;28;20029;-77
2022/09/27 02:37:59;;;;;;;5.22;1.30;;;;;;;-143.48;83.77;77774.22;4977146;28;20024;-77
2022/09/27 02:40:30;;;;;;;10.98;1.20;;;;;;;-143.48;84.09;77784.13;4994850;28;20720;-76
2022/09/27 02:42:56;;;;;;;4.72;1.00;;;;;;;-143.48;84.06;77796.03;4977459;28;20022;-76
2022/09/27 02:45:23;;;;;;;7.68;1.10;;;;;;;-143.48;84.00;77790.06;4977238;28;20474;-77
2022/09/27 02:48:14;;;;;;;11.55;1.85;;;;;;;-143.48;84.32;77772.22;4977001;28;20033;-77
2022/09/27 02:50:47;;;;;;;8.80;1.30;;;;;;;-143.48;84.16;77782.16;4986345;28;20072;-76
2022/09/27 02:53:30;;;;;;;7.70;1.10;;;;;;;-143.48;82.86;77758.34;4995163;28;20447;-76
2022/09/27 02:56:02;;;;;;;7.97;1.10;;;;;;;-143.48;81.63;77740.50;4995039;28;20030;-77
2022/09/27 02:59:09;;;;;;;13.38;1.27;;;;;;;-143.48;82.24;77742.50;4977181;28;20027;-77
2022/09/27 03:01:44;;;;;;;8.18;1.08;;;;;;;-143.48;82.36;77736.53;4976984;28;20026;-77
2022/09/27 03:04:17;;;;;;;5.78;0.95;;;;;;;-143.48;82.71;77740.50;4994921;28;20048;-77
2022/09/27 03:06:46;;;;;;;9.00;1.17;;;;;;;-143.48;82.63;77746.44;4976902;28;20026;-77
2022/09/27 03:09:20;;;;;;;6.72;0.90;;;;;;;-143.48;82.20;77734.56;4994586;28;20061;-76
2022/09/27 03:11:46;;;;;;;8.52;1.20;;;;;;;-143.48;81.61;77728.59;4976787;28;20046;-76
2022/09/27 03:14:11;;;;;;;10.40;1.60;;;;;;;-143.48;81.66;77722.66;4994433;28;20030;-76
2022/09/27 03:16:36;;;;;;;7.00;0.85;;;;;;;-143.48;81.98;77726.63;4994225;28;20504;-76
2022/09/27 03:19:02;;;;;;;7.20;0.82;;;;;;;-143.48;82.93;77724.63;4976816;28;20493;-76
2022/09/27 03:21:28;;;;;;;9.43;1.02;;;;;;;-143.48;82.58;77738.53;4976786;28;20536;-78
2022/09/27 03:23:53;;;;;;;11.10;1.20;;;;;;;-143.48;83.74;77744.47;4976659;28;20026;-78
2022/09/27 03:26:18;;;;;;;7.53;1.10;;;;;;;-143.48;83.30;77730.59;4994137;28;20530;-78
2022/09/27 03:28:44;;;;;;;5.55;1.25;;;;;;;-143.48;83.01;77726.63;4994014;28;20030;-75
2022/09/27 03:31:09;;;;;;;4.10;0.88;;;;;;;-143.48;82.86;77736.53;4994178;28;20030;-75
2022/09/27 03:33:34;;;;;;;3.83;0.77;;;;;;;-143.48;83.25;77738.53;4978742;28;20057;-76
2022/09/27 03:36:00;;;;;;;9.43;1.15;;;;;;;-143.48;83.73;77744.47;5000344;28;20026;-77
2022/09/27 03:38:25;;;;;;;8.35;1.27;;;;;;;-143.48;83.51;77724.63;5000375;28;20038;-76
2022/09/27 03:40:51;;;;;;;5.53;1.13;;;;;;;-143.48;83.35;77730.59;5000175;28;20109;-77
2022/09/27 03:43:17;;;;;;;6.28;0.90;;;;;;;-143.48;83.43;77738.53;4983011;28;20120;-76
2022/09/27 03:45:44;;;;;;;6.57;0.93;;;;;;;-143.48;82.75;77752.41;5000127;28;20034;-77
2022/09/27 03:48:09;;;;;;;6.20;0.93;;;;;;;-143.48;83.16;77776.19;4982591;28;20022;-77
2022/09/27 03:50:35;;;;;;;7.03;1.00;;;;;;;-143.48;83.98;77782.16;4966654;28;20034;-77
2022/09/27 03:53:00;;;;;;;4.53;0.90;;;;;;;-143.48;83.06;77800.00;4982452;28;20030;-78
2022/09/27 03:55:26;;;;;;;10.90;1.40;;;;;;;-143.48;84.05;77809.91;4982632;28;20045;-77
2022/09/27 03:57:51;;;;;;;9.45;1.20;;;;;;;-143.48;84.15;77778.19;4982688;28;20442;-78
2022/09/27 04:00:16;;;;;;;8.48;1.13;;;;;;;-143.48;83.66;77772.22;5000343;28;20026;-76
2022/09/27 04:02:43;;;;;;;7.80;1.20;;;;;;;-143.48;83.26;77758.34;5000099;28;20119;-79
2022/09/27 04:05:09;;;;;;;8.35;1.23;;;;;;;-143.48;82.73;77762.31;4982756;28;20034;-76
2022/09/27 04:07:34;;;;;;;7.53;1.20;;;;;;;-143.48;83.22;77770.25;5000090;28;20030;-75
2022/09/27 04:10:00;;;;;;;6.35;0.90;;;;;;;-143.48;83.52;77764.31;4999810;28;20556;-78
2022/09/27 04:12:25;;;;;;;7.15;1.10;;;;;;;-143.48;83.46;77738.53;5000335;28;20080;-76
2022/09/27 04:14:51;;;;;;;7.10;1.40;;;;;;;-143.48;82.83;77766.28;4982573;28;20363;-76
2022/09/27 04:17:16;;;;;;;10.02;1.35;;;;;;;-143.48;83.08;77794.03;4999849;28;20038;-77
2022/09/27 04:19:42;;;;;;;4.18;0.80;;;;;;;-143.48;83.42;77780.16;4982394;28;20058;-77
2022/09/27 04:22:08;;;;;;;4.53;0.95;;;;;;;-143.48;83.16;77809.91;5000434;28;20468;-77
2022/09/27 04:24:33;;;;;;;4.63;0.90;;;;;;;-143.48;83.77;77805.94;5000083;28;20022;-77
2022/09/27 04:26:59;;;;;;;6.75;1.30;;;;;;;-143.48;83.52;77817.84;4982244;28;20034;-76
2022/09/27 04:29:25;;;;;;;4.90;1.10;;;;;;;-143.48;83.62;77825.78;5000237;28;20085;-77
2022/09/27 04:31:50;;;;;;;5.38;0.90;;;;;;;-143.48;83.61;77835.69;4982450;28;20030;-77
2022/09/27 04:34:16;;;;;;;5.22;0.85;;;;;;;-143.48;83.76;77837.66;4982660;28;20044;-77
2022/09/27 04:36:41;;;;;;;7.18;1.20;;;;;;;-143.48;83.86;77829.75;5000171;28;20029;-77
2022/09/27 04:39:08;;;;;;;6.15;1.30;;;;;;;-143.48;83.80;77821.81;5001324;28;20065;-78
2022/09/27 04:41:34;;;;;;;7.55;1.00;;;;;;;-143.48;83.48;77827.75;5000004;28;20032;-78
2022/09/27 04:44:00;;;;;;;7.47;1.98;;;;;;;-143.48;84.00;77837.66;4982314;28;20122;-76
2022/09/27 04:46:30;;;;;;;3.35;1.20;;;;;;;-143.48;84.09;77833.69;4984554;28;20066;-77
2022/09/27 04:48:59;;;;;;;5.65;1.27;;;;;;;-143.48;84.00;77829.75;4982162;28;20381;-78
2022/09/27 04:51:25;;;;;;;7.30;1.73;;;;;;;-143.48;83.56;77823.78;4996636;28;20034;-77
2022/09/27 04:53:51;;;;;;;7.65;1.55;;;;;;;-143.48;83.74;77815.84;4979484;28;20105;-78
2022/09/27 04:56:16;;;;;;;7.40;1.42;;;;;;;-143.48;84.30;77784.13;4979894;28;20552;-78
2022/09/27 04:58:42;;;;;;;4.43;1.30;;;;;;;-143.48;84.28;77778.19;4980513;28;20389;-77
2022/09/27 05:01:08;;;;;;;6.57;1.23;;;;;;;-143.48;83.95;77786.13;4983083;28;20026;-77
2022/09/27 05:03:34;;;;;;;7.45;1.25;;;;;;;-143.48;83.71;77790.06;4979161;28;20088;-78
2022/09/27 05:06:01;;;;;;;7.57;1.05;;;;;;;-143.48;83.43;77780.16;4996926;28;20026;-76
2022/09/27 05:08:27;;;;;;;6.35;1.25;;;;;;;-143.48;83.53;77784.13;4996264;28;20026;-77
2022/09/27 05:10:53;;;;;;;7.25;1.23;;;;;;;-143.48;82.71;77770.25;4978986;28;20053;-77
2022/09/27 05:13:19;;;;;;;5.28;1.17;;;;;;;-143.48;82.65;77792.06;4996720;28;20490;-77
2022/09/27 05:15:45;;;;;;;8.30;1.83;;;;;;;-143.48;83.03;77782.16;4979076;28;20026;-78
2022/09/27 05:18:10;;;;;;;3.92;1.00;;;;;;;-143.48;83.33;77790.06;4979135;28;20018;-79
2022/09/27 05:20:36;;;;;;;8.07;1.60;;;;;;;-143.48;83.09;77792.06;4979633;28;20478;-79
2022/09/27 05:23:03;;;;;;;4.15;1.30;;;;;;;-143.48;82.86;77801.97;4997329;28;20030;-78
2022/09/27 05:25:29;;;;;;;6.10;1.40;;;;;;;-143.48;83.03;77805.94;4997127;28;20029;-78
2022/09/27 05:27:56;;;;;;;5.05;1.25;;;;;;;-143.48;83.15;77794.03;4997452;28;20031;-77
2022/09/27 05:30:21;;;;;;;7.13;1.52;;;;;;;-143.48;83.51;77796.03;4979585;28;20080;-77
2022/09/27 05:32:48;;;;;;;9.02;2.20;;;;;;;-143.48;82.75;77801.97;4979218;28;20108;-78
2022/09/27 05:35:16;;;;;;;8.07;1.55;;;;;;;-143.48;83.18;77803.97;4979476;28;20026;-78
2022/09/27 05:37:41;;;;;;;6.25;1.70;;;;;;;-143.48;83.49;77788.09;4996366;28;20030;-78
2022/09/27 05:40:07;;;;;;;7.88;1.95;;;;;;;-143.48;82.46;77782.16;4981406;28;20489;-78
2022/09/27 05:42:34;;;;;;;10.27;1.13;;;;;;;-143.48;81.22;77774.22;4997486;28;20034;-77
2022/09/27 05:45:00;;;;;;;7.05;1.65;;;;;;;-143.48;81.23;77774.22;4978864;28;20094;-77
2022/09/27 05:47:25;;;;;;;13.48;1.45;;;;;;;-143.48;80.70;77778.19;4978956;28;20452;-78
2022/09/27 05:49:50;;;;;;;9.85;1.40;;;;;;;-143.48;80.68;77750.41;4979025;28;20482;-79
2022/09/27 05:52:17;;;;;;;10.25;1.58;;;;;;;-143.48;80.05;77762.31;4978887;28;20053;-79
2022/09/27 05:54:42;;;;;;;7.30;1.50;;;;;;;-143.48;81.41;77786.13;4979055;28;20026;-78
2022/09/27 05:57:07;;;;;;;11.80;1.85;;;;;;;-143.48;82.23;77809.91;4995907;28;20057;-78
2022/09/27 05:59:33;;;;;;;10.60;2.38;;;;;;;-143.48;82.73;77790.06;4996462;28;20087;-77
2022/09/27 06:01:58;;;;;;;7.28;1.63;;;;;;;-143.48;82.59;77790.06;4996595;28;20034;-78
2022/09/27 06:04:24;;;;;;;9.93;1.42;;;;;;;-143.48;82.41;77786.13;4978810;28;20049;-78
2022/09/27 06:06:49;;;;;;;15.43;2.95;;;;;;;-143.48;82.67;77784.13;4978382;28;20385;-77
2022/09/27 06:09:16;;;;;;;15.48;2.85;;;;;;;-143.48;83.22;77794.03;4980861;28;20456;-78
2022/09/27 06:11:44;;;;;;;7.72;2.13;;;;;;;-143.48;83.22;77786.13;4980026;28;20058;-79
2022/09/27 06:14:11;;;;;;;25.17;5.47;;;;;;;-143.48;83.28;77786.13;4978384;28;20422;-79
2022/09/27 06:16:36;;;;;;;24.55;5.97;;;;;;;-143.48;83.46;77778.19;4977946;28;20061;-79
2022/09/27 06:19:03;;;;;;;12.82;2.58;;;;;;;-143.48;83.14;77780.16;4977556;28;20118;-77
2022/09/27 06:21:29;;;;;;;6.75;1.60;;;;;;;-143.48;83.35;77774.22;4994873;28;20060;-79
2022/09/27 06:23:57;;;;;;;6.70;1.20;;;;;;;-143.48;83.72;77766.28;4979140;28;20019;-78
2022/09/27 06:26:23;;;;;;;5.32;0.90;;;;;;;-143.48;83.77;77772.22;4996354;28;20041;-79
2022/09/27 06:28:50;;;;;;;3.15;0.88;;;;;;;-143.48;83.90;77754.38;4995525;28;20034;-78
2022/09/27 06:31:16;;;;;;;4.15;1.10;;;;;;;-143.48;83.41;77768.25;4995782;28;20105;-78
2022/09/27 06:33:41;;;;;;;5.22;1.25;;;;;;;-143.48;83.79;77778.19;4995240;28;20110;-77
2022/09/27 06:36:07;;;;;;;6.20;1.83;;;;;;;-143.48;84.46;77794.03;4977387;28;20054;-77
2022/09/27 06:38:33;;;;;;;6.38;1.10;;;;;;;-143.48;84.58;77790.06;4994875;28;20026;-77
2022/09/27 06:41:03;;;;;;;5.93;1.10;;;;;;;-143.48;84.84;77778.19;4978003;28;20026;-77
2022/09/27 06:43:30;;;;;;;7.10;1.13;;;;;;;-143.48;84.60;77776.19;4978063;28;20101;-78
2022/09/27 06:46:04;;;;;;;3.90;0.95;;;;;;;-143.48;84.48;77778.19;4978571;28;20069;-79
2022/09/27 06:48:30;;;;;;;7.93;1.20;;;;;;;-143.48;84.71;77778.19;4995312;28;20033;-78
2022/09/27 06:50:56;;;;;;;7.43;1.13;;;;;;;-143.48;84.50;77772.22;4978455;28;20065;-78
2022/09/27 06:53:22;;;;;;;6.35;1.20;;;;;;;-143.48;84.65;77752.41;4978107;28;20022;-78
2022/09/27 06:55:48;;;;;;;4.70;0.98;;;;;;;-143.48;84.20;77732.56;4977881;28;20026;-79
2022/09/27 07:00:57;;;;;;;5.10;1.15;;;;;;;-143.48;83.60;77726.63;4995926;28;20448;-79
2022/09/27 07:03:30;;;;;;;3.47;1.20;;;;;;;-143.48;83.65;77712.75;4978019;28;20109;-79
2022/09/27 07:06:00;;;;;;;3.33;0.95;;;;;;;-143.48;83.20;77710.75;4978086;28;20030;-79
2022/09/27 07:08:27;;;;;;;5.78;1.20;;;;;;;-143.48;83.22;77718.69;4978026;28;20030;-78
2022/09/27 07:10:54;;;;;;;7.53;1.30;;;;;;;-143.48;83.67;77714.72;4978452;28;20413;-77
2022/09/27 07:13:20;;;;;;;4.85;1.30;;;;;;;-143.48;83.10;77730.59;4976518;28;20022;-77
2022/09/27 07:15:45;;;;;;;4.22;1.23;;;;;;;-143.48;82.70;77734.56;4975988;28;20076;-78
2022/09/27 07:18:11;;;;;;;9.10;1.27;;;;;;;-143.48;83.26;77754.38;4976848;28;20081;-78
2022/09/27 07:20:37;;;;;;;8.05;1.40;;;;;;;-143.48;83.11;77714.72;4976632;28;20109;-77
2022/09/27 07:23:04;;;;;;;7.07;1.50;;;;;;;-143.48;82.45;77710.75;4994147;28;20027;-78
2022/09/27 07:25:30;;;;;;;7.75;1.40;;;;;;;-143.48;81.80;77710.75;4976389;28;20453;-78
2022/09/27 07:28:00;;;;;;;6.55;1.10;;;;;;;-143.48;82.20;77679.03;4977061;28;20394;-78
2022/09/27 07:30:26;;;;;;;5.50;1.52;;;;;;;-143.48;81.38;77683.00;4960569;28;20088;-78
2022/09/27 07:32:59;;;;;;;6.03;1.30;;;;;;;-143.48;80.89;77679.03;4975949;28;20030;-79
2022/09/27 07:35:26;;;;;;;5.40;1.25;;;;;;;-143.48;80.85;77690.94;4976705;28;20057;-78
2022/09/27 07:37:51;;;;;;;5.78;1.52;;;;;;;-143.48;80.61;77698.88;4976670;28;20026;-78
2022/09/27 07:40:17;;;;;;;7.28;1.55;;;;;;;-143.48;81.02;77690.94;4994778;28;20018;-77
2022/09/27 07:42:42;;;;;;;8.95;1.70;;;;;;;-143.48;81.19;77704.81;4976825;28;20027;-78
2022/09/27 07:45:10;;;;;;;9.57;1.30;;;;;;;-143.48;82.88;77690.94;4976675;28;20489;-77
2022/09/27 07:47:37;;;;;;;6.30;1.60;;;;;;;-143.48;82.49;77714.72;4978216;28;20109;-78
2022/09/27 07:50:04;;;;;;;6.15;1.30;;;;;;;-143.48;82.07;77694.91;4977268;28;20036;-78
2022/09/27 07:52:29;;;;;;;5.80;1.50;;;;;;;-143.48;81.97;77686.97;4994457;28;20105;-78
2022/09/27 07:54:55;;;;;;;7.15;1.80;;;;;;;-143.48;82.02;77700.84;4994515;28;20463;-78
2022/09/27 07:57:22;;;;;;;19.92;1.50;;;;;;;-143.48;81.64;77702.84;4994379;28;20026;-78
2022/09/27 07:59:47;;;;;;;5.00;1.13;;;;;;;-143.48;81.75;77681.03;4976869;28;20025;-77
2022/09/27 08:02:14;;;;;;;6.00;1.23;;;;;;;-143.48;81.78;77677.06;4994543;28;20108;-77
2022/09/27 08:04:40;;;;;;;5.53;1.25;;;;;;;-143.48;80.65;77657.22;4976564;28;20030;-77
2022/09/27 08:07:05;;;;;;;4.45;1.38;;;;;;;-143.48;80.79;77639.38;4993996;28;20242;-78
2022/09/27 08:09:30;;;;;;;8.32;1.17;;;;;;;-143.48;80.74;77627.47;4976533;28;20593;-77
2022/09/27 08:11:59;;;;;;;7.22;1.67;;;;;;;-143.48;78.50;77591.78;4976891;28;20133;-78
2022/09/27 08:14:24;;;;;;;5.95;1.27;;;;;;;-143.48;78.12;77605.66;4994466;28;20034;-78
2022/09/27 08:16:50;;;;;;;9.35;1.27;;;;;;;-143.48;78.63;77657.22;4994597;28;20124;-78
2022/09/27 08:19:16;;;;;;;15.15;1.70;;;;;;;-143.48;81.36;77686.97;4994336;28;20030;-76
2022/09/27 08:21:43;;;;;;;10.48;1.80;;;;;;;-143.48;82.96;77712.75;4997362;28;20465;-77
2022/09/27 08:24:08;;;;;;;4.40;1.65;;;;;;;-143.48;78.04;77740.50;4980088;28;20018;-76
2022/09/27 08:26:34;;;;;;;3.83;1.30;;;;;;;-143.48;79.05;77720.69;4981049;28;20370;-78
2022/09/27 08:28:59;;;;;;;7.43;0.82;;;;;;;-143.48;78.94;77714.72;4981492;28;20153;-75
2022/09/27 08:31:25;;;;;;;2.72;0.88;;;;;;;-143.48;78.01;77704.81;4998100;28;20240;-79
2022/09/27 08:33:52;;;;;;;4.43;0.85;;;;;;;-143.48;79.18;77690.94;4999862;28;20033;-76
2022/09/27 08:36:19;;;;;;;6.35;1.13;;;;;;;-143.48;77.93;77661.19;4998940;28;20030;-77
2022/09/27 08:38:48;;;;;;;3.65;1.05;;;;;;;-143.48;79.49;77645.31;4980572;28;20030;-78
2022/09/27 08:41:23;;;;;;;6.90;1.30;;;;;;;-143.48;78.80;77631.44;4979578;28;20139;-77
2022/09/27 08:44:00;;;;;;;3.97;1.13;;;;;;;-143.48;79.95;77621.53;4997158;28;20066;-78
2022/09/27 08:46:57;;;;;;;7.00;1.20;;;;;;;-143.48;80.22;77619.56;5001603;28;20040;-77
2022/09/27 08:49:32;;;;;;;7.10;1.55;;;;;;;-143.48;79.87;77625.50;4998013;28;20501;-78
2022/09/27 08:51:58;;;;;;;3.90;1.05;;;;;;;-143.48;79.39;77655.25;4981155;28;20026;-78
2022/09/27 08:54:28;;;;;;;4.95;1.10;;;;;;;-143.48;79.01;77663.19;4980060;28;20030;-77
2022/09/27 08:57:04;;;;;;;4.30;0.95;;;;;;;-143.48;81.30;77661.19;4979721;28;20397;-77
2022/09/27 08:59:37;;;;;;;5.05;1.40;;;;;;;-143.48;81.65;77675.06;4979499;28;20030;-78
2022/09/27 09:02:04;;;;;;;6.38;1.02;;;;;;;-143.48;80.66;77673.09;4982722;28;20042;-78
2022/09/27 09:04:38;;;;;;;6.15;1.10;;;;;;;-143.48;80.55;77665.16;4968646;28;20033;-78
2022/09/27 09:07:04;;;;;;;6.03;1.13;;;;;;;-143.48;80.38;77647.31;5002842;28;20068;-78
2022/09/27 09:09:54;;;;;;;3.83;1.00;;;;;;;-143.48;79.98;77663.19;4979558;28;20464;-78
2022/09/27 09:12:49;;;;;;;4.90;1.10;;;;;;;-143.48;77.81;77663.19;4979829;28;20042;-79
2022/09/27 09:15:55;;;;;;;4.25;1.08;;;;;;;-143.48;77.85;77681.03;4979758;28;20390;-79
2022/09/27 09:19:08;;;;;;;8.55;1.48;;;;;;;-143.48;79.17;77696.88;5013157;28;20505;-77
2022/09/27 09:22:03;;;;;;;7.38;1.38;;;;;;;-143.48;80.48;77690.94;4957815;28;20040;-79
2022/09/27 09:24:44;;;;;;;7.15;1.40;;;;;;;-143.48;79.46;77657.22;4997003;28;20026;-77
2022/09/27 09:27:44;;;;;;;5.72;1.27;;;;;;;-143.48;79.61;77663.19;4979212;28;20803;-77
2022/09/27 09:30:54;;;;;;;7.80;1.60;;;;;;;-143.48;80.20;77675.06;4963501;28;20046;-77
2022/09/27 09:33:25;;;;;;;6.60;1.65;;;;;;;-143.48;80.27;77663.19;4979056;28;20065;-77
2022/09/27 09:36:22;;;;;;;5.85;1.48;;;;;;;-143.48;79.75;77661.19;4978919;28;20041;-78
2022/09/27 09:38:59;;;;;;;8.68;1.15;;;;;;;-143.48;79.90;77675.06;4996828;28;20026;-77
2022/09/27 09:41:24;;;;;;;7.50;1.30;;;;;;;-143.48;78.81;77690.94;4986601;28;20026;-78
2022/09/27 09:43:57;;;;;;;6.45;0.90;;;;;;;-143.48;79.35;77688.94;4996264;28;20096;-77
2022/09/27 09:46:34;;;;;;;4.93;1.10;;;;;;;-143.48;79.59;77696.88;4996812;28;20022;-78
2022/09/27 09:49:13;;;;;;;5.03;1.00;;;;;;;-143.48;79.19;77683.00;4996090;28;20437;-78
2022/09/27 09:51:43;;;;;;;6.65;1.02;;;;;;;-143.48;78.92;77684.97;4996689;28;20026;-76
2022/09/27 09:54:25;;;;;;;3.85;0.90;;;;;;;-143.48;79.53;77686.97;4979055;28;20081;-77
2022/09/27 09:57:05;;;;;;;6.15;0.95;;;;;;;-143.48;80.50;77686.97;4980754;28;20026;-79
2022/09/27 09:59:46;;;;;;;6.72;1.00;;;;;;;-143.48;80.47;77690.94;4979775;28;20065;-79
2022/09/27 10:02:32;;;;;;;6.70;0.80;;;;;;;-143.48;79.98;77677.06;4978767;28;20034;-79
2022/09/27 10:04:57;;;;;;;6.53;1.20;;;;;;;-143.48;79.96;77671.09;4978674;28;20377;-78
2022/09/27 10:07:25;;;;;;;6.05;1.17;;;;;;;-143.48;79.64;77673.09;4995372;28;20026;-79
2022/09/27 10:09:54;;;;;;;4.30;1.17;;;;;;;-143.48;80.37;77694.91;4995560;28;20480;-78
2022/09/27 10:12:20;;;;;;;4.07;1.20;;;;;;;-143.48;80.23;77710.75;4978263;28;20046;-79
2022/09/27 10:14:48;;;;;;;5.95;0.90;;;;;;;-143.48;80.86;77714.72;4996523;28;20069;-79
2022/09/27 10:17:17;;;;;;;8.18;1.50;;;;;;;-143.48;80.05;77706.78;5003503;28;20089;-79
2022/09/27 10:19:44;;;;;;;6.38;1.40;;;;;;;-143.48;80.33;77688.94;4982651;28;20042;-78
2022/09/27 10:22:24;;;;;;;4.88;1.17;;;;;;;-143.48;78.54;77696.88;4978828;28;20029;-78
2022/09/27 10:25:05;;;;;;;4.30;1.13;;;;;;;-143.48;77.98;77675.06;4982105;28;20058;-79
2022/09/27 10:27:41;;;;;;;2.70;1.20;;;;;;;-143.48;75.42;77649.28;4993406;28;20078;-78
2022/09/27 10:30:33;;;;;;;6.90;1.08;;;;;;;-143.48;76.62;77643.34;5010790;28;20030;-78
2022/09/27 10:33:03;;;;;;;3.22;0.90;;;;;;;-143.48;77.09;77637.41;5010266;28;20027;-79
2022/09/27 10:35:29;;;;;;;6.00;1.10;;;;;;;-143.48;76.35;77615.59;5006582;28;20049;-79
2022/09/27 10:38:22;;;;;;;2.95;1.33;;;;;;;-143.48;75.49;77621.53;5015006;28;20022;-81
2022/09/27 10:40:49;;;;;;;;;;;;;;;-143.48;75.85;77623.50;4997260;28;20030;-80
2022/09/27 10:43:34;;;;;;;1.73;0.57;;;;;;;-143.48;76.09;77639.38;4997347;28;20004;-79
2022/09/27 10:46:23;;;;;;;4.90;1.05;;;;;;;-143.48;76.59;77645.31;4990182;28;20034;-81
2022/09/27 10:49:07;;;;;;;3.75;1.10;;;;;;;-143.48;74.86;77688.94;4990630;28;20355;-77
2022/09/27 10:51:33;;;;;;;3.50;1.20;;;;;;;-143.48;75.07;77645.31;4986394;28;20046;-80
2022/09/27 10:54:00;;;;;;;4.30;1.42;;;;;;;-143.48;74.78;77671.09;4989834;28;20081;-78
2022/09/27 10:56:34;;;;;;;3.22;0.85;;;;;;;-143.48;76.12;77718.69;4996899;28;20106;-81
2022/09/27 10:59:01;;;;;;;5.10;1.10;;;;;;;-143.48;78.14;77718.69;5015786;28;20042;-78
2022/09/27 11:01:44;;;;;;;2.88;0.85;;;;;;;-143.48;77.67;77726.63;5015892;28;20033;-81
2022/09/27 11:04:20;;;;;;;5.27;1.33;;;;;;;-143.48;77.98;77720.69;4993681;28;20027;-78
2022/09/27 11:06:46;;;;;;;5.07;1.50;;;;;;;-143.48;78.65;77744.47;5013876;28;20266;-79
2022/09/27 11:09:23;;;;;;;7.50;1.55;;;;;;;-143.48;79.64;77742.50;4998148;28;20156;-78
2022/09/27 11:11:49;;;;;;;4.72;1.20;;;;;;;-143.48;78.93;77764.31;4995362;28;20046;-78
2022/09/27 11:14:20;;;;;;;9.43;1.40;;;;;;;-143.48;78.86;77748.44;5003528;28;20398;-78
2022/09/27 11:16:52;;;;;;;4.57;1.38;;;;;;;-143.48;78.87;77738.53;4976586;28;20743;-78
2022/09/27 11:19:47;;;;;;;3.80;1.40;;;;;;;-143.48;79.06;77752.41;4986469;28;20018;-80
2022/09/27 11:22:24;;;;;;;4.35;1.27;;;;;;;-143.48;78.98;77756.38;4979280;28;20030;-80
2022/09/27 11:25:19;;;;;;;5.03;1.30;;;;;;;-143.48;78.85;77734.56;4981401;28;20393;-82
2022/09/27 11:28:23;;;;;;;5.90;1.25;;;;;;;-143.48;78.53;77720.69;4979071;28;20490;-80
2022/09/27 11:31:28;;;;;;;4.95;1.02;;;;;;;-143.48;77.87;77724.63;4978266;28;20045;-80
2022/09/27 11:34:16;;;;;;;2.72;1.02;;;;;;;-143.48;78.61;77720.69;4996802;28;20057;-83
2022/09/27 11:36:45;;;;;;;6.28;1.20;;;;;;;-143.48;77.93;77694.91;5016343;28;20032;-84